sensor_id;sensor_type;location;lat;lon;timestamp;P1;durP1;ratioP1;P2;durP2;ratioP2
7661;SDS011;30314;48.184;11.510;2022-10-16T00:01:16;4.93;;;1.90;;
7661;SDS011;30314;48.184;11.510;2022-10-16T00:03:45;3.43;;;1.80;;
7661;SDS011;30314;48.184;11.510;2022-10-16T00:06:14;4.50;;;1.90;;
7661;SDS011;30314;48.184;11.510;2022-10-16T00:08:43;3.27;;;1.67;;
7661;SDS011;30314;48.184;11.510;2022-10-16T00:11:12;5.60;;;1.60;;
7661;SDS011;30314;48.184;11.510;2022-10-16T00:13:42;3.30;;;1.90;;
7661;SDS011;30314;48.184;11.510;2022-10-16T00:16:12;10.00;;;2.70;;
7661;SDS011;30314;48.184;11.510;2022-10-16T00:18:41;4.37;;;1.50;;
7661;SDS011;30314;48.184;11.510;2022-10-16T00:21:10;3.00;;;1.40;;
7661;SDS011;30314;48.184;11.510;2022-10-16T00:23:40;2.23;;;1.40;;
7661;SDS011;30314;48.184;11.510;2022-10-16T00:26:09;2.57;;;1.40;;
7661;SDS011;30314;48.184;11.510;2022-10-16T00:28:38;6.33;;;2.17;;
7661;SDS011;30314;48.184;11.510;2022-10-16T00:31:08;3.77;;;1.70;;
7661;SDS011;30314;48.184;11.510;2022-10-16T00:33:38;3.93;;;2.10;;
7661;SDS011;30314;48.184;11.510;2022-10-16T00:36:07;2.57;;;1.83;;
7661;SDS011;30314;48.184;11.510;2022-10-16T00:38:38;3.93;;;2.27;;
7661;SDS011;30314;48.184;11.510;2022-10-16T00:41:07;3.67;;;1.57;;
7661;SDS011;30314;48.184;11.510;2022-10-16T00:43:39;6.67;;;1.70;;
7661;SDS011;30314;48.184;11.510;2022-10-16T00:46:15;6.80;;;1.40;;
7661;SDS011;30314;48.184;11.510;2022-10-16T00:48:48;3.87;;;1.60;;
7661;SDS011;30314;48.184;11.510;2022-10-16T00:51:19;5.03;;;1.37;;
7661;SDS011;30314;48.184;11.510;2022-10-16T00:53:50;5.13;;;1.80;;
7661;SDS011;30314;48.184;11.510;2022-10-16T00:56:18;2.67;;;1.40;;
7661;SDS011;30314;48.184;11.510;2022-10-16T00:58:46;9.97;;;1.43;;
7661;SDS011;30314;48.184;11.510;2022-10-16T01:01:14;5.60;;;1.80;;
7661;SDS011;30314;48.184;11.510;2022-10-16T01:03:41;4.53;;;1.53;;
7661;SDS011;30314;48.184;11.510;2022-10-16T01:06:16;6.40;;;1.40;;
7661;SDS011;30314;48.184;11.510;2022-10-16T01:09:08;1.70;;;0.80;;
7661;SDS011;30314;48.184;11.510;2022-10-16T01:11:44;2.77;;;1.60;;
7661;SDS011;30314;48.184;11.510;2022-10-16T01:14:19;6.53;;;1.40;;
7661;SDS011;30314;48.184;11.510;2022-10-16T01:16:55;5.30;;;1.87;;
7661;SDS011;30314;48.184;11.510;2022-10-16T01:19:38;2.83;;;1.17;;
7661;SDS011;30314;48.184;11.510;2022-10-16T01:22:18;4.00;;;1.33;;
7661;SDS011;30314;48.184;11.510;2022-10-16T01:24:49;2.20;;;1.30;;
7661;SDS011;30314;48.184;11.510;2022-10-16T01:27:19;4.40;;;1.20;;
7661;SDS011;30314;48.184;11.510;2022-10-16T01:29:52;3.17;;;1.33;;
7661;SDS011;30314;48.184;11.510;2022-10-16T01:32:27;6.30;;;2.67;;
7661;SDS011;30314;48.184;11.510;2022-10-16T01:34:59;2.67;;;1.40;;
7661;SDS011;30314;48.184;11.510;2022-10-16T01:37:32;4.47;;;1.10;;
7661;SDS011;30314;48.184;11.510;2022-10-16T01:40:05;4.47;;;1.10;;
7661;SDS011;30314;48.184;11.510;2022-10-16T01:42:38;2.23;;;1.13;;
7661;SDS011;30314;48.184;11.510;2022-10-16T01:45:09;1.10;;;0.63;;
7661;SDS011;30314;48.184;11.510;2022-10-16T01:47:40;1.67;;;1.17;;
7661;SDS011;30314;48.184;11.510;2022-10-16T01:50:10;2.10;;;1.00;;
7661;SDS011;30314;48.184;11.510;2022-10-16T01:52:40;3.67;;;1.90;;
7661;SDS011;30314;48.184;11.510;2022-10-16T01:55:12;1.50;;;1.10;;
7661;SDS011;30314;48.184;11.510;2022-10-16T01:57:47;1.67;;;1.27;;
7661;SDS011;30314;48.184;11.510;2022-10-16T02:00:17;1.20;;;0.73;;
7661;SDS011;30314;48.184;11.510;2022-10-16T02:02:48;2.57;;;1.33;;
7661;SDS011;30314;48.184;11.510;2022-10-16T02:05:20;1.40;;;0.97;;
7661;SDS011;30314;48.184;11.510;2022-10-16T02:07:52;2.27;;;1.40;;
7661;SDS011;30314;48.184;11.510;2022-10-16T02:10:20;2.20;;;1.67;;
7661;SDS011;30314;48.184;11.510;2022-10-16T02:12:52;4.00;;;1.03;;
7661;SDS011;30314;48.184;11.510;2022-10-16T02:15:24;2.40;;;1.23;;
7661;SDS011;30314;48.184;11.510;2022-10-16T02:17:52;1.20;;;0.80;;
7661;SDS011;30314;48.184;11.510;2022-10-16T02:20:20;3.40;;;0.93;;
7661;SDS011;30314;48.184;11.510;2022-10-16T02:23:00;4.73;;;1.23;;
7661;SDS011;30314;48.184;11.510;2022-10-16T02:25:30;1.93;;;1.00;;
7661;SDS011;30314;48.184;11.510;2022-10-16T02:28:02;2.90;;;1.03;;
7661;SDS011;30314;48.184;11.510;2022-10-16T02:30:34;3.33;;;1.30;;
7661;SDS011;30314;48.184;11.510;2022-10-16T02:33:07;1.63;;;0.90;;
7661;SDS011;30314;48.184;11.510;2022-10-16T02:35:40;2.30;;;1.20;;
7661;SDS011;30314;48.184;11.510;2022-10-16T02:38:10;1.87;;;0.87;;
7661;SDS011;30314;48.184;11.510;2022-10-16T02:40:39;1.17;;;0.80;;
7661;SDS011;30314;48.184;11.510;2022-10-16T02:43:08;1.23;;;0.93;;
7661;SDS011;30314;48.184;11.510;2022-10-16T02:45:37;1.80;;;1.17;;
7661;SDS011;30314;48.184;11.510;2022-10-16T02:48:05;2.50;;;0.90;;
7661;SDS011;30314;48.184;11.510;2022-10-16T02:50:33;1.80;;;1.10;;
7661;SDS011;30314;48.184;11.510;2022-10-16T02:53:01;1.97;;;1.00;;
7661;SDS011;30314;48.184;11.510;2022-10-16T02:55:29;2.83;;;1.03;;
7661;SDS011;30314;48.184;11.510;2022-10-16T02:57:56;3.20;;;1.20;;
7661;SDS011;30314;48.184;11.510;2022-10-16T03:00:25;2.07;;;1.20;;
7661;SDS011;30314;48.184;11.510;2022-10-16T03:02:54;3.10;;;1.23;;
7661;SDS011;30314;48.184;11.510;2022-10-16T03:05:22;2.70;;;0.80;;
7661;SDS011;30314;48.184;11.510;2022-10-16T03:07:50;7.40;;;1.10;;
7661;SDS011;30314;48.184;11.510;2022-10-16T03:10:18;1.30;;;0.90;;
7661;SDS011;30314;48.184;11.510;2022-10-16T03:12:46;1.90;;;1.13;;
7661;SDS011;30314;48.184;11.510;2022-10-16T03:15:14;2.13;;;1.20;;
7661;SDS011;30314;48.184;11.510;2022-10-16T03:17:43;3.20;;;1.37;;
7661;SDS011;30314;48.184;11.510;2022-10-16T03:20:11;3.30;;;1.30;;
7661;SDS011;30314;48.184;11.510;2022-10-16T03:22:38;3.93;;;1.40;;
7661;SDS011;30314;48.184;11.510;2022-10-16T03:25:06;4.33;;;1.10;;
7661;SDS011;30314;48.184;11.510;2022-10-16T03:27:35;3.73;;;1.27;;
7661;SDS011;30314;48.184;11.510;2022-10-16T03:30:02;2.13;;;1.23;;
7661;SDS011;30314;48.184;11.510;2022-10-16T03:32:31;1.90;;;1.03;;
7661;SDS011;30314;48.184;11.510;2022-10-16T03:35:00;8.33;;;1.30;;
7661;SDS011;30314;48.184;11.510;2022-10-16T03:37:28;2.73;;;0.97;;
7661;SDS011;30314;48.184;11.510;2022-10-16T03:39:55;3.80;;;0.90;;
7661;SDS011;30314;48.184;11.510;2022-10-16T03:42:23;3.27;;;1.20;;
7661;SDS011;30314;48.184;11.510;2022-10-16T03:44:51;1.50;;;1.07;;
7661;SDS011;30314;48.184;11.510;2022-10-16T03:47:19;1.40;;;0.80;;
7661;SDS011;30314;48.184;11.510;2022-10-16T03:49:48;4.23;;;1.33;;
7661;SDS011;30314;48.184;11.510;2022-10-16T03:52:17;3.27;;;1.43;;
7661;SDS011;30314;48.184;11.510;2022-10-16T03:54:50;4.93;;;1.60;;
7661;SDS011;30314;48.184;11.510;2022-10-16T03:57:17;4.30;;;0.90;;
7661;SDS011;30314;48.184;11.510;2022-10-16T03:59:46;2.80;;;1.17;;
7661;SDS011;30314;48.184;11.510;2022-10-16T04:02:14;2.27;;;0.93;;
7661;SDS011;30314;48.184;11.510;2022-10-16T04:04:42;11.30;;;1.33;;
7661;SDS011;30314;48.184;11.510;2022-10-16T04:07:09;1.80;;;1.00;;
7661;SDS011;30314;48.184;11.510;2022-10-16T04:09:38;1.10;;;0.90;;
7661;SDS011;30314;48.184;11.510;2022-10-16T04:12:06;2.23;;;1.30;;
7661;SDS011;30314;48.184;11.510;2022-10-16T04:14:34;2.83;;;1.00;;
7661;SDS011;30314;48.184;11.510;2022-10-16T04:17:02;2.50;;;1.23;;
7661;SDS011;30314;48.184;11.510;2022-10-16T04:19:30;1.90;;;1.10;;
7661;SDS011;30314;48.184;11.510;2022-10-16T04:21:57;6.03;;;0.80;;
7661;SDS011;30314;48.184;11.510;2022-10-16T04:24:25;4.97;;;1.23;;
7661;SDS011;30314;48.184;11.510;2022-10-16T04:26:54;1.57;;;1.20;;
7661;SDS011;30314;48.184;11.510;2022-10-16T04:29:22;3.57;;;1.33;;
7661;SDS011;30314;48.184;11.510;2022-10-16T04:31:50;1.80;;;1.20;;
7661;SDS011;30314;48.184;11.510;2022-10-16T04:34:17;2.10;;;0.80;;
7661;SDS011;30314;48.184;11.510;2022-10-16T04:36:46;1.77;;;0.60;;
7661;SDS011;30314;48.184;11.510;2022-10-16T04:39:15;1.43;;;1.20;;
7661;SDS011;30314;48.184;11.510;2022-10-16T04:41:43;1.83;;;1.00;;
7661;SDS011;30314;48.184;11.510;2022-10-16T04:44:12;5.73;;;1.20;;
7661;SDS011;30314;48.184;11.510;2022-10-16T04:46:40;2.47;;;1.23;;
7661;SDS011;30314;48.184;11.510;2022-10-16T04:49:08;2.87;;;1.27;;
7661;SDS011;30314;48.184;11.510;2022-10-16T04:51:35;1.63;;;1.23;;
7661;SDS011;30314;48.184;11.510;2022-10-16T04:54:03;3.20;;;1.30;;
7661;SDS011;30314;48.184;11.510;2022-10-16T04:56:31;3.10;;;1.30;;
7661;SDS011;30314;48.184;11.510;2022-10-16T04:58:59;5.50;;;1.20;;
7661;SDS011;30314;48.184;11.510;2022-10-16T05:01:28;6.10;;;1.40;;
7661;SDS011;30314;48.184;11.510;2022-10-16T05:03:55;1.53;;;1.20;;
7661;SDS011;30314;48.184;11.510;2022-10-16T05:06:26;2.50;;;1.07;;
7661;SDS011;30314;48.184;11.510;2022-10-16T05:08:54;1.93;;;1.20;;
7661;SDS011;30314;48.184;11.510;2022-10-16T05:11:21;1.93;;;1.00;;
7661;SDS011;30314;48.184;11.510;2022-10-16T05:13:49;2.13;;;1.40;;
7661;SDS011;30314;48.184;11.510;2022-10-16T05:16:21;1.70;;;1.20;;
7661;SDS011;30314;48.184;11.510;2022-10-16T05:18:50;4.03;;;1.20;;
7661;SDS011;30314;48.184;11.510;2022-10-16T05:21:29;7.90;;;1.20;;
7661;SDS011;30314;48.184;11.510;2022-10-16T05:23:57;10.10;;;1.20;;
7661;SDS011;30314;48.184;11.510;2022-10-16T05:26:25;2.13;;;1.30;;
7661;SDS011;30314;48.184;11.510;2022-10-16T05:28:52;2.30;;;1.23;;
7661;SDS011;30314;48.184;11.510;2022-10-16T05:31:20;9.03;;;1.30;;
7661;SDS011;30314;48.184;11.510;2022-10-16T05:33:49;1.70;;;1.00;;
7661;SDS011;30314;48.184;11.510;2022-10-16T05:36:17;1.50;;;0.90;;
7661;SDS011;30314;48.184;11.510;2022-10-16T05:38:45;1.70;;;1.17;;
7661;SDS011;30314;48.184;11.510;2022-10-16T05:41:13;2.10;;;1.30;;
7661;SDS011;30314;48.184;11.510;2022-10-16T05:43:40;4.50;;;1.37;;
7661;SDS011;30314;48.184;11.510;2022-10-16T05:46:08;3.67;;;1.47;;
7661;SDS011;30314;48.184;11.510;2022-10-16T05:48:36;5.50;;;3.23;;
7661;SDS011;30314;48.184;11.510;2022-10-16T05:51:06;1.87;;;1.33;;
7661;SDS011;30314;48.184;11.510;2022-10-16T05:53:35;6.20;;;1.57;;
7661;SDS011;30314;48.184;11.510;2022-10-16T05:56:04;2.20;;;0.97;;
7661;SDS011;30314;48.184;11.510;2022-10-16T05:58:33;3.13;;;1.20;;
7661;SDS011;30314;48.184;11.510;2022-10-16T06:01:03;4.30;;;1.37;;
7661;SDS011;30314;48.184;11.510;2022-10-16T06:03:33;2.27;;;1.37;;
7661;SDS011;30314;48.184;11.510;2022-10-16T06:06:08;6.63;;;1.00;;
7661;SDS011;30314;48.184;11.510;2022-10-16T06:08:38;2.43;;;1.47;;
7661;SDS011;30314;48.184;11.510;2022-10-16T06:11:07;2.33;;;1.53;;
7661;SDS011;30314;48.184;11.510;2022-10-16T06:13:36;3.80;;;1.60;;
7661;SDS011;30314;48.184;11.510;2022-10-16T06:16:05;7.60;;;2.13;;
7661;SDS011;30314;48.184;11.510;2022-10-16T06:18:33;2.00;;;1.23;;
7661;SDS011;30314;48.184;11.510;2022-10-16T06:21:08;2.83;;;1.73;;
7661;SDS011;30314;48.184;11.510;2022-10-16T06:23:36;2.30;;;1.40;;
7661;SDS011;30314;48.184;11.510;2022-10-16T06:26:05;5.03;;;2.20;;
7661;SDS011;30314;48.184;11.510;2022-10-16T06:28:34;2.27;;;1.50;;
7661;SDS011;30314;48.184;11.510;2022-10-16T06:31:02;4.80;;;1.77;;
7661;SDS011;30314;48.184;11.510;2022-10-16T06:33:34;2.60;;;1.50;;
7661;SDS011;30314;48.184;11.510;2022-10-16T06:36:02;2.60;;;1.90;;
7661;SDS011;30314;48.184;11.510;2022-10-16T06:38:32;2.03;;;1.27;;
7661;SDS011;30314;48.184;11.510;2022-10-16T06:41:00;7.30;;;1.53;;
7661;SDS011;30314;48.184;11.510;2022-10-16T06:43:28;3.03;;;1.30;;
7661;SDS011;30314;48.184;11.510;2022-10-16T06:45:58;7.30;;;2.30;;
7661;SDS011;30314;48.184;11.510;2022-10-16T06:48:28;6.00;;;1.90;;
7661;SDS011;30314;48.184;11.510;2022-10-16T06:50:57;4.93;;;1.60;;
7661;SDS011;30314;48.184;11.510;2022-10-16T06:53:27;3.77;;;2.20;;
7661;SDS011;30314;48.184;11.510;2022-10-16T06:56:11;3.17;;;1.40;;
7661;SDS011;30314;48.184;11.510;2022-10-16T06:58:40;3.17;;;1.93;;
7661;SDS011;30314;48.184;11.510;2022-10-16T07:01:09;1.93;;;1.40;;
7661;SDS011;30314;48.184;11.510;2022-10-16T07:03:38;5.97;;;1.80;;
7661;SDS011;30314;48.184;11.510;2022-10-16T07:06:07;3.20;;;1.73;;
7661;SDS011;30314;48.184;11.510;2022-10-16T07:08:36;2.93;;;1.70;;
7661;SDS011;30314;48.184;11.510;2022-10-16T07:11:07;3.27;;;1.70;;
7661;SDS011;30314;48.184;11.510;2022-10-16T07:13:38;7.43;;;1.93;;
7661;SDS011;30314;48.184;11.510;2022-10-16T07:16:09;3.33;;;1.80;;
7661;SDS011;30314;48.184;11.510;2022-10-16T07:18:38;7.13;;;2.57;;
7661;SDS011;30314;48.184;11.510;2022-10-16T07:21:09;6.23;;;2.10;;
7661;SDS011;30314;48.184;11.510;2022-10-16T07:23:38;3.10;;;2.10;;
7661;SDS011;30314;48.184;11.510;2022-10-16T07:26:06;3.10;;;1.80;;
7661;SDS011;30314;48.184;11.510;2022-10-16T07:28:34;7.37;;;2.60;;
7661;SDS011;30314;48.184;11.510;2022-10-16T07:31:05;3.67;;;2.40;;
7661;SDS011;30314;48.184;11.510;2022-10-16T07:33:34;3.53;;;2.60;;
7661;SDS011;30314;48.184;11.510;2022-10-16T07:36:02;7.17;;;3.20;;
7661;SDS011;30314;48.184;11.510;2022-10-16T07:38:30;5.27;;;3.67;;
7661;SDS011;30314;48.184;11.510;2022-10-16T07:40:58;5.30;;;3.03;;
7661;SDS011;30314;48.184;11.510;2022-10-16T07:43:27;4.27;;;2.80;;
7661;SDS011;30314;48.184;11.510;2022-10-16T07:45:55;5.97;;;3.10;;
7661;SDS011;30314;48.184;11.510;2022-10-16T07:48:29;4.90;;;2.60;;
7661;SDS011;30314;48.184;11.510;2022-10-16T07:50:59;4.77;;;3.30;;
7661;SDS011;30314;48.184;11.510;2022-10-16T07:53:27;3.67;;;2.53;;
7661;SDS011;30314;48.184;11.510;2022-10-16T07:55:56;3.53;;;2.00;;
7661;SDS011;30314;48.184;11.510;2022-10-16T07:58:25;2.17;;;1.97;;
7661;SDS011;30314;48.184;11.510;2022-10-16T08:00:54;2.37;;;1.73;;
7661;SDS011;30314;48.184;11.510;2022-10-16T08:03:21;2.70;;;1.70;;
7661;SDS011;30314;48.184;11.510;2022-10-16T08:05:51;2.10;;;1.50;;
7661;SDS011;30314;48.184;11.510;2022-10-16T08:08:19;2.70;;;2.00;;
7661;SDS011;30314;48.184;11.510;2022-10-16T08:10:46;14.87;;;1.90;;
7661;SDS011;30314;48.184;11.510;2022-10-16T08:13:14;3.50;;;1.83;;
7661;SDS011;30314;48.184;11.510;2022-10-16T08:15:42;3.83;;;2.13;;
7661;SDS011;30314;48.184;11.510;2022-10-16T08:18:11;3.70;;;1.90;;
7661;SDS011;30314;48.184;11.510;2022-10-16T08:20:41;2.90;;;1.90;;
7661;SDS011;30314;48.184;11.510;2022-10-16T08:23:12;3.20;;;1.90;;
7661;SDS011;30314;48.184;11.510;2022-10-16T08:25:40;3.13;;;2.00;;
7661;SDS011;30314;48.184;11.510;2022-10-16T08:28:09;2.70;;;1.63;;
7661;SDS011;30314;48.184;11.510;2022-10-16T08:30:38;3.80;;;2.10;;
7661;SDS011;30314;48.184;11.510;2022-10-16T08:33:06;3.90;;;2.03;;
7661;SDS011;30314;48.184;11.510;2022-10-16T08:35:34;2.83;;;2.10;;
7661;SDS011;30314;48.184;11.510;2022-10-16T08:38:04;3.30;;;1.93;;
7661;SDS011;30314;48.184;11.510;2022-10-16T08:40:34;6.83;;;1.80;;
7661;SDS011;30314;48.184;11.510;2022-10-16T08:48:55;3.40;;;2.17;;
7661;SDS011;30314;48.184;11.510;2022-10-16T08:51:26;3.30;;;1.87;;
7661;SDS011;30314;48.184;11.510;2022-10-16T08:53:57;2.80;;;2.00;;
7661;SDS011;30314;48.184;11.510;2022-10-16T08:56:27;3.87;;;1.80;;
7661;SDS011;30314;48.184;11.510;2022-10-16T08:58:57;4.93;;;1.80;;
7661;SDS011;30314;48.184;11.510;2022-10-16T09:01:33;1.93;;;1.53;;
7661;SDS011;30314;48.184;11.510;2022-10-16T09:04:18;2.17;;;1.70;;
7661;SDS011;30314;48.184;11.510;2022-10-16T09:07:04;2.43;;;1.80;;
7661;SDS011;30314;48.184;11.510;2022-10-16T09:09:40;2.50;;;1.80;;
7661;SDS011;30314;48.184;11.510;2022-10-16T09:12:22;2.97;;;1.57;;
7661;SDS011;30314;48.184;11.510;2022-10-16T09:14:58;2.30;;;1.73;;
7661;SDS011;30314;48.184;11.510;2022-10-16T09:17:37;2.93;;;2.20;;
7661;SDS011;30314;48.184;11.510;2022-10-16T09:20:19;4.40;;;1.70;;
7661;SDS011;30314;48.184;11.510;2022-10-16T09:23:01;2.83;;;2.00;;
7661;SDS011;30314;48.184;11.510;2022-10-16T09:25:41;8.20;;;2.20;;
7661;SDS011;30314;48.184;11.510;2022-10-16T09:28:12;2.63;;;1.93;;
7661;SDS011;30314;48.184;11.510;2022-10-16T09:30:40;3.17;;;2.40;;
7661;SDS011;30314;48.184;11.510;2022-10-16T09:33:09;2.00;;;1.27;;
7661;SDS011;30314;48.184;11.510;2022-10-16T09:35:40;2.53;;;1.70;;
7661;SDS011;30314;48.184;11.510;2022-10-16T09:38:09;4.20;;;2.10;;
7661;SDS011;30314;48.184;11.510;2022-10-16T09:40:49;3.87;;;2.00;;
7661;SDS011;30314;48.184;11.510;2022-10-16T09:43:31;5.50;;;1.33;;
7661;SDS011;30314;48.184;11.510;2022-10-16T09:46:02;2.50;;;1.50;;
7661;SDS011;30314;48.184;11.510;2022-10-16T09:48:32;2.43;;;1.60;;
7661;SDS011;30314;48.184;11.510;2022-10-16T09:51:04;2.43;;;1.80;;
7661;SDS011;30314;48.184;11.510;2022-10-16T09:53:40;5.10;;;2.03;;
7661;SDS011;30314;48.184;11.510;2022-10-16T09:56:09;2.57;;;1.53;;
7661;SDS011;30314;48.184;11.510;2022-10-16T09:58:49;4.10;;;2.10;;
7661;SDS011;30314;48.184;11.510;2022-10-16T10:01:18;1.60;;;1.27;;
7661;SDS011;30314;48.184;11.510;2022-10-16T10:03:47;4.27;;;1.70;;
7661;SDS011;30314;48.184;11.510;2022-10-16T10:06:17;2.00;;;1.40;;
7661;SDS011;30314;48.184;11.510;2022-10-16T10:08:55;3.37;;;1.40;;
7661;SDS011;30314;48.184;11.510;2022-10-16T10:14:30;2.07;;;1.40;;
7661;SDS011;30314;48.184;11.510;2022-10-16T10:17:08;20.10;;;2.60;;
7661;SDS011;30314;48.184;11.510;2022-10-16T10:19:39;4.40;;;1.50;;
7661;SDS011;30314;48.184;11.510;2022-10-16T10:22:23;3.23;;;1.37;;
7661;SDS011;30314;48.184;11.510;2022-10-16T10:24:54;2.27;;;1.50;;
7661;SDS011;30314;48.184;11.510;2022-10-16T10:27:24;2.70;;;1.27;;
7661;SDS011;30314;48.184;11.510;2022-10-16T10:29:58;1.87;;;1.10;;
7661;SDS011;30314;48.184;11.510;2022-10-16T10:32:32;13.23;;;1.53;;
7661;SDS011;30314;48.184;11.510;2022-10-16T10:35:11;2.13;;;1.10;;
7661;SDS011;30314;48.184;11.510;2022-10-16T10:37:47;1.50;;;1.00;;
7661;SDS011;30314;48.184;11.510;2022-10-16T10:40:27;1.70;;;1.00;;
7661;SDS011;30314;48.184;11.510;2022-10-16T10:43:03;3.10;;;0.73;;
7661;SDS011;30314;48.184;11.510;2022-10-16T10:45:43;2.57;;;1.40;;
7661;SDS011;30314;48.184;11.510;2022-10-16T10:48:20;1.93;;;1.03;;
7661;SDS011;30314;48.184;11.510;2022-10-16T10:50:56;3.47;;;2.20;;
7661;SDS011;30314;48.184;11.510;2022-10-16T10:53:31;3.00;;;1.70;;
7661;SDS011;30314;48.184;11.510;2022-10-16T10:56:09;5.60;;;1.20;;
7661;SDS011;30314;48.184;11.510;2022-10-16T10:58:57;1.50;;;0.90;;
7661;SDS011;30314;48.184;11.510;2022-10-16T11:01:50;1.70;;;1.00;;
7661;SDS011;30314;48.184;11.510;2022-10-16T11:04:29;1.13;;;0.80;;
7661;SDS011;30314;48.184;11.510;2022-10-16T11:07:07;1.93;;;0.90;;
7661;SDS011;30314;48.184;11.510;2022-10-16T11:09:41;1.30;;;0.73;;
7661;SDS011;30314;48.184;11.510;2022-10-16T11:12:14;5.80;;;1.10;;
7661;SDS011;30314;48.184;11.510;2022-10-16T11:14:46;1.47;;;0.80;;
7661;SDS011;30314;48.184;11.510;2022-10-16T11:17:18;1.10;;;0.50;;
7661;SDS011;30314;48.184;11.510;2022-10-16T11:19:53;3.17;;;0.80;;
7661;SDS011;30314;48.184;11.510;2022-10-16T11:22:25;2.80;;;0.87;;
7661;SDS011;30314;48.184;11.510;2022-10-16T11:25:00;2.30;;;0.77;;
7661;SDS011;30314;48.184;11.510;2022-10-16T11:27:36;2.20;;;0.90;;
7661;SDS011;30314;48.184;11.510;2022-10-16T11:30:11;1.20;;;0.90;;
7661;SDS011;30314;48.184;11.510;2022-10-16T11:32:49;1.30;;;0.80;;
7661;SDS011;30314;48.184;11.510;2022-10-16T11:35:22;1.40;;;0.73;;
7661;SDS011;30314;48.184;11.510;2022-10-16T11:37:59;6.03;;;1.27;;
7661;SDS011;30314;48.184;11.510;2022-10-16T11:40:37;2.53;;;0.70;;
7661;SDS011;30314;48.184;11.510;2022-10-16T11:43:10;2.80;;;0.90;;
7661;SDS011;30314;48.184;11.510;2022-10-16T11:45:42;1.67;;;0.97;;
7661;SDS011;30314;48.184;11.510;2022-10-16T11:48:18;1.43;;;0.53;;
7661;SDS011;30314;48.184;11.510;2022-10-16T11:50:52;4.73;;;0.60;;
7661;SDS011;30314;48.184;11.510;2022-10-16T11:53:23;1.10;;;0.53;;
7661;SDS011;30314;48.184;11.510;2022-10-16T11:56:02;1.27;;;0.50;;
7661;SDS011;30314;48.184;11.510;2022-10-16T11:58:31;6.50;;;1.67;;
7661;SDS011;30314;48.184;11.510;2022-10-16T12:01:05;2.90;;;0.90;;
7661;SDS011;30314;48.184;11.510;2022-10-16T12:03:53;3.20;;;0.90;;
7661;SDS011;30314;48.184;11.510;2022-10-16T12:06:31;1.23;;;0.80;;
7661;SDS011;30314;48.184;11.510;2022-10-16T12:09:04;1.93;;;0.77;;
7661;SDS011;30314;48.184;11.510;2022-10-16T12:11:34;0.90;;;0.50;;
7661;SDS011;30314;48.184;11.510;2022-10-16T12:14:05;1.70;;;0.80;;
7661;SDS011;30314;48.184;11.510;2022-10-16T12:16:52;1.57;;;0.70;;
7661;SDS011;30314;48.184;11.510;2022-10-16T12:19:23;1.73;;;0.80;;
7661;SDS011;30314;48.184;11.510;2022-10-16T12:21:54;6.00;;;0.90;;
7661;SDS011;30314;48.184;11.510;2022-10-16T12:24:29;1.30;;;0.80;;
7661;SDS011;30314;48.184;11.510;2022-10-16T12:27:01;4.77;;;0.80;;
7661;SDS011;30314;48.184;11.510;2022-10-16T12:29:32;1.50;;;0.77;;
7661;SDS011;30314;48.184;11.510;2022-10-16T12:32:02;2.30;;;0.90;;
7661;SDS011;30314;48.184;11.510;2022-10-16T12:34:37;1.30;;;0.80;;
7661;SDS011;30314;48.184;11.510;2022-10-16T12:37:08;2.60;;;0.57;;
7661;SDS011;30314;48.184;11.510;2022-10-16T12:39:38;1.30;;;0.60;;
7661;SDS011;30314;48.184;11.510;2022-10-16T12:42:19;1.47;;;0.30;;
7661;SDS011;30314;48.184;11.510;2022-10-16T12:44:56;3.63;;;0.47;;
7661;SDS011;30314;48.184;11.510;2022-10-16T12:47:35;1.00;;;0.40;;
7661;SDS011;30314;48.184;11.510;2022-10-16T12:52:59;1.10;;;0.40;;
7661;SDS011;30314;48.184;11.510;2022-10-16T12:55:32;1.67;;;0.70;;
7661;SDS011;30314;48.184;11.510;2022-10-16T12:58:13;0.90;;;0.30;;
7661;SDS011;30314;48.184;11.510;2022-10-16T13:00:54;2.00;;;0.40;;
7661;SDS011;30314;48.184;11.510;2022-10-16T13:06:27;2.57;;;0.47;;
7661;SDS011;30314;48.184;11.510;2022-10-16T13:11:52;0.90;;;0.50;;
7661;SDS011;30314;48.184;11.510;2022-10-16T13:17:22;1.17;;;0.50;;
7661;SDS011;30314;48.184;11.510;2022-10-16T13:19:57;1.00;;;0.40;;
7661;SDS011;30314;48.184;11.510;2022-10-16T13:22:36;3.03;;;0.57;;
7661;SDS011;30314;48.184;11.510;2022-10-16T13:25:18;1.30;;;0.30;;
7661;SDS011;30314;48.184;11.510;2022-10-16T13:27:56;2.10;;;0.50;;
7661;SDS011;30314;48.184;11.510;2022-10-16T13:30:32;1.10;;;0.50;;
7661;SDS011;30314;48.184;11.510;2022-10-16T13:33:06;2.57;;;0.80;;
7661;SDS011;30314;48.184;11.510;2022-10-16T13:35:47;1.47;;;0.60;;
7661;SDS011;30314;48.184;11.510;2022-10-16T13:38:18;1.10;;;0.50;;
7661;SDS011;30314;48.184;11.510;2022-10-16T13:40:48;2.50;;;1.00;;
7661;SDS011;30314;48.184;11.510;2022-10-16T13:43:21;1.63;;;0.60;;
7661;SDS011;30314;48.184;11.510;2022-10-16T13:45:52;2.13;;;0.60;;
7661;SDS011;30314;48.184;11.510;2022-10-16T13:48:24;2.27;;;0.70;;
7661;SDS011;30314;48.184;11.510;2022-10-16T13:50:59;1.23;;;0.50;;
7661;SDS011;30314;48.184;11.510;2022-10-16T13:53:33;2.07;;;0.50;;
7661;SDS011;30314;48.184;11.510;2022-10-16T13:56:02;1.00;;;0.50;;
7661;SDS011;30314;48.184;11.510;2022-10-16T13:58:32;0.97;;;0.40;;
7661;SDS011;30314;48.184;11.510;2022-10-16T14:01:01;1.13;;;0.57;;
7661;SDS011;30314;48.184;11.510;2022-10-16T14:03:31;1.37;;;0.47;;
7661;SDS011;30314;48.184;11.510;2022-10-16T14:06:02;0.80;;;0.27;;
7661;SDS011;30314;48.184;11.510;2022-10-16T14:08:36;2.90;;;0.90;;
7661;SDS011;30314;48.184;11.510;2022-10-16T14:11:04;1.60;;;0.43;;
7661;SDS011;30314;48.184;11.510;2022-10-16T14:13:33;0.90;;;0.30;;
7661;SDS011;30314;48.184;11.510;2022-10-16T14:16:05;1.03;;;0.50;;
7661;SDS011;30314;48.184;11.510;2022-10-16T14:18:36;1.37;;;0.50;;
7661;SDS011;30314;48.184;11.510;2022-10-16T14:21:06;1.67;;;0.83;;
7661;SDS011;30314;48.184;11.510;2022-10-16T14:23:40;7.53;;;0.70;;
7661;SDS011;30314;48.184;11.510;2022-10-16T14:26:12;2.53;;;0.57;;
7661;SDS011;30314;48.184;11.510;2022-10-16T14:28:42;1.30;;;0.60;;
7661;SDS011;30314;48.184;11.510;2022-10-16T14:31:21;1.50;;;0.70;;
7661;SDS011;30314;48.184;11.510;2022-10-16T14:33:52;2.80;;;1.10;;
7661;SDS011;30314;48.184;11.510;2022-10-16T14:36:20;1.20;;;0.80;;
7661;SDS011;30314;48.184;11.510;2022-10-16T14:38:52;3.33;;;0.87;;
7661;SDS011;30314;48.184;11.510;2022-10-16T14:41:26;1.77;;;0.70;;
7661;SDS011;30314;48.184;11.510;2022-10-16T14:43:56;3.50;;;1.00;;
7661;SDS011;30314;48.184;11.510;2022-10-16T14:46:28;1.40;;;0.60;;
7661;SDS011;30314;48.184;11.510;2022-10-16T14:49:00;1.33;;;0.70;;
7661;SDS011;30314;48.184;11.510;2022-10-16T14:51:30;1.10;;;0.70;;
7661;SDS011;30314;48.184;11.510;2022-10-16T14:54:00;1.43;;;0.50;;
7661;SDS011;30314;48.184;11.510;2022-10-16T14:56:29;1.30;;;0.60;;
7661;SDS011;30314;48.184;11.510;2022-10-16T14:58:58;4.30;;;0.80;;
7661;SDS011;30314;48.184;11.510;2022-10-16T15:01:28;1.73;;;0.50;;
7661;SDS011;30314;48.184;11.510;2022-10-16T15:03:56;1.10;;;0.57;;
7661;SDS011;30314;48.184;11.510;2022-10-16T15:06:24;1.30;;;0.40;;
7661;SDS011;30314;48.184;11.510;2022-10-16T15:08:52;2.90;;;1.10;;
7661;SDS011;30314;48.184;11.510;2022-10-16T15:11:21;3.20;;;2.37;;
7661;SDS011;30314;48.184;11.510;2022-10-16T15:13:48;7.67;;;3.03;;
7661;SDS011;30314;48.184;11.510;2022-10-16T15:16:16;10.70;;;6.37;;
7661;SDS011;30314;48.184;11.510;2022-10-16T15:18:45;12.97;;;5.27;;
7661;SDS011;30314;48.184;11.510;2022-10-16T15:21:15;6.40;;;3.13;;
7661;SDS011;30314;48.184;11.510;2022-10-16T15:23:51;4.40;;;2.40;;
7661;SDS011;30314;48.184;11.510;2022-10-16T15:26:20;2.13;;;1.23;;
7661;SDS011;30314;48.184;11.510;2022-10-16T15:28:48;2.77;;;1.13;;
7661;SDS011;30314;48.184;11.510;2022-10-16T15:31:16;2.60;;;0.90;;
7661;SDS011;30314;48.184;11.510;2022-10-16T15:33:44;3.43;;;0.70;;